Date,TemperatureHighF,TemperatureAvgF,TemperatureLowF,DewpointHighF,DewpointAvgF,DewpointLowF,HumidityHigh,HumidityAvg,HumidityLow,PressureMaxIn,PressureMinIn,WindSpeedMaxMPH,WindSpeedAvgMPH,GustSpeedMaxMPH,PrecipitationSumIn
2013-1-1,18,7,-3,6,0,-7,85,71,55,30.41,30.24,11,2,0,0.00
2013-1-2,29,20,9,27,14,3,92,80,70,30.24,30.09,14,2,15,0.00
2013-1-3,29,18,11,26,13,6,87,80,72,30.43,30.22,21,5,21,0.00
2013-1-4,36,25,12,23,18,8,88,75,57,30.37,30.21,20,2,20,0.00
2013-1-5,38,29,23,32,24,17,88,80,71,30.21,29.97,28,6,28,0.00
2013-1-6,29,21,13,19,14,7,88,76,66,30.35,30.13,25,5,27,0.00
2013-1-7,44,34,23,30,24,18,85,69,55,30.25,30.03,24,4,26,0.00
2013-1-8,47,36,26,34,28,22,88,75,59,30.10,29.86,19,4,19,0.00
2013-1-9,43,37,30,33,30,26,87,76,63,30.46,30.10,15,2,15,0.00
2013-1-10,39,34,30,34,29,25,95,82,66,30.42,29.75,16,3,16,0.05
2013-1-11,53,44,34,46,41,33,96,88,72,29.76,29.46,36,6,36,0.01
2013-1-12,52,23,13,44,15,4,87,70,64,30.14,29.54,31,10,33,0.00
2013-1-13,18,12,7,9,4,1,77,70,65,30.40,30.09,22,7,23,0.00
2013-1-14,30,18,7,12,8,2,83,66,45,30.55,30.40,13,1,14,0.00
2013-1-15,33,24,15,15,12,8,77,59,44,30.44,30.10,13,2,15,0.00
2013-1-16,48,34,22,35,24,11,87,69,60,30.24,29.91,23,6,24,0.00
2013-1-17,35,25,15,24,16,8,85,70,46,30.50,30.24,19,3,19,0.00
2013-1-18,55,42,24,35,30,18,81,62,45,30.39,29.88,37,8,37,0.00
2013-1-19,50,40,17,34,28,4,75,63,42,30.30,29.81,40,10,48,0.00
2013-1-20,17,11,5,8,4,0,88,73,60,30.45,30.29,21,7,22,0.00
2013-1-21,6,2,-4,0,-5,-12,79,68,62,30.53,30.42,28,10,31,0.00
2013-1-22,15,14,1,5,4,-6,71,64,59,30.49,30.37,8,0,0,0.00
2013-1-23,26,16,4,17,7,-4,77,67,60,30.61,30.25,29,7,31,0.00
2013-1-24,20,10,2,6,-2,-7,67,56,46,30.69,30.28,19,8,22,0.00
2013-1-25,36,24,12,24,13,2,78,65,55,30.36,30.15,28,7,28,0.00
2013-1-26,35,20,7,16,8,0,76,59,41,30.42,30.20,22,6,22,0.00
2013-1-27,37,33,30,37,28,16,100,84,55,30.20,29.77,19,5,19,0.19
2013-1-28,47,37,33,46,36,31,97,96,94,29.94,29.59,15,3,15,0.27
2013-1-29,58,38,31,58,36,29,97,93,89,29.70,29.52,23,7,26,0.11
2013-1-30,31,22,14,29,19,8,93,87,77,29.92,29.52,36,16,39,0.00
2013-1-31,14,5,-2,8,-2,-8,85,73,67,30.47,29.92,32,13,33,0.01
2013-2-1,25,6,-7,16,-2,-11,79,69,58,30.50,30.12,20,6,21,0.00
2013-2-2,26,20,14,23,14,7,90,77,61,30.26,30.03,23,6,24,0.00
2013-2-3,33,25,16,28,16,11,91,69,50,30.24,29.83,33,8,35,0.00
2013-2-4,31,23,18,24,18,14,92,79,70,30.06,29.79,25,5,25,0.00
2013-2-5,42,31,21,34,25,17,88,80,70,30.15,29.84,29,5,30,0.00
2013-2-6,43,34,24,34,29,22,92,81,69,30.16,29.94,20,3,20,0.00
2013-2-7,40,33,27,36,30,24,92,89,76,30.23,29.90,26,8,26,0.23
2013-2-8,28,26,23,24,22,20,88,85,81,30.41,30.23,20,5,23,0.00
2013-2-9,37,30,26,31,27,23,90,87,79,30.31,29.86,26,9,26,0.09
2013-2-10,51,37,32,45,33,24,96,86,63,29.86,29.28,38,12,40,0.12
2013-2-11,32,29,27,24,22,20,79,74,69,30.17,29.61,38,13,41,0.00
2013-2-12,44,33,22,28,24,18,92,69,51,30.18,29.90,21,3,22,0.00
2013-2-13,51,38,26,32,27,22,86,68,45,29.90,29.70,16,3,18,0.00
2013-2-14,41,35,23,31,27,14,83,73,58,30.22,29.72,34,11,34,0.00
2013-2-15,27,21,15,16,11,7,79,66,52,30.37,30.22,21,8,23,0.00
2013-2-16,36,23,10,18,13,6,86,69,44,30.36,30.15,13,2,14,0.00
2013-2-17,45,32,19,27,22,15,89,67,47,30.15,29.68,30,7,30,0.00
2013-2-18,43,30,16,34,23,8,87,73,64,29.97,29.58,38,11,38,0.00
2013-2-19,21,14,5,8,4,-2,76,62,49,30.45,29.97,36,15,36,0.00
2013-2-20,22,12,0,11,2,-6,75,62,48,30.53,30.36,16,4,14,0.00
2013-2-21,24,21,16,21,15,10,91,78,63,30.40,29.88,29,9,29,0.00
2013-2-22,26,23,21,24,20,17,92,89,84,30.04,29.82,21,4,21,0.02
2013-2-23,33,23,13,24,17,10,92,79,64,30.03,29.95,16,2,16,0.00
2013-2-24,42,28,15,30,22,12,89,78,59,30.12,29.98,9,1,0,0.00
2013-2-25,39,33,27,31,27,24,92,80,65,30.12,29.93,16,4,16,0.00
2013-2-26,32,30,28,29,27,25,94,89,79,29.93,29.73,28,12,30,0.00
2013-2-27,30,27,24,28,25,20,93,90,84,30.03,29.82,29,12,30,0.00
2013-2-28,31,26,23,24,22,19,95,84,75,30.22,30.03,23,10,23,0.00
2013-3-1,28,25,24,23,20,16,88,80,70,30.37,30.20,19,9,19,0.00
2013-3-2,32,24,15,21,17,12,85,75,61,30.39,30.22,20,2,20,0.00
2013-3-3,34,28,22,24,20,16,86,73,60,30.23,29.94,23,6,23,0.00
2013-3-4,36,31,27,30,27,24,91,86,78,29.99,29.81,23,8,24,0.01
2013-3-5,31,28,26,28,24,20,93,82,71,30.33,29.97,36,10,39,0.00
2013-3-6,28,24,18,21,18,14,87,80,71,30.47,30.33,23,6,24,0.01
2013-3-7,34,24,14,25,19,11,90,81,65,30.43,30.29,21,5,21,0.01
2013-3-8,44,34,24,34,28,21,92,79,66,30.34,30.06,20,6,22,0.11
2013-3-9,40,38,36,38,36,33,95,92,84,30.06,29.65,25,6,25,0.43
2013-3-10,38,34,31,37,33,29,95,94,92,29.82,29.65,29,10,29,0.37
2013-3-11,31,26,24,29,23,19,100,89,80,29.99,29.75,25,10,25,0.00
2013-3-12,32,26,20,26,20,16,87,79,70,30.30,29.99,34,9,40,0.01
2013-3-13,34,24,16,21,16,12,83,72,47,30.50,30.30,25,4,25,0.00
2013-3-14,49,37,26,36,28,19,86,71,54,30.36,30.09,14,3,15,0.00
2013-3-15,53,40,30,45,36,26,92,84,73,30.09,29.73,18,2,18,0.00
2013-3-16,36,32,26,33,26,20,90,80,68,30.24,29.81,29,11,30,0.00
2013-3-17,39,30,21,28,22,16,82,73,61,30.23,29.87,24,10,27,0.00
2013-3-18,33,28,21,31,22,12,94,79,63,30.03,29.74,33,9,34,0.06
2013-3-19,36,25,16,22,14,7,79,63,47,30.31,30.01,30,8,30,0.01
2013-3-20,26,20,13,16,9,3,77,62,48,30.39,30.19,31,12,31,0.00
2013-3-21,34,22,10,18,11,4,81,63,45,30.20,30.02,15,4,16,0.00
2013-3-22,38,29,18,24,18,13,81,66,46,30.12,30.03,12,2,12,0.00
2013-3-23,37,31,26,28,22,19,92,71,52,30.17,30.03,18,5,18,0.00
2013-3-24,31,28,26,27,25,23,93,88,72,30.07,29.93,26,11,27,0.00
2013-3-25,34,30,27,26,24,20,93,78,60,30.30,30.00,28,12,28,0.00
2013-3-26,40,30,22,25,21,17,82,69,49,30.38,30.30,18,4,19,0.00
2013-3-27,46,35,23,29,25,19,92,67,48,30.38,30.28,15,1,15,0.00
2013-3-28,56,43,29,36,31,25,85,65,45,30.34,30.22,14,3,15,0.00
2013-3-29,62,48,32,38,34,29,87,62,37,30.29,30.12,18,4,19,0.00
2013-3-30,56,49,44,51,43,35,93,80,57,30.12,29.86,14,3,16,0.21
2013-3-31,50,41,32,42,32,20,95,73,40,30.12,29.89,31,8,32,0.02
2013-4-1,38,30,22,21,18,15,76,62,46,30.33,30.12,24,10,25,0.00
2013-4-2,45,33,20,25,21,16,88,63,37,30.39,30.33,23,3,23,0.00
2013-4-3,50,37,26,25,22,19,76,55,35,30.44,30.27,16,2,18,0.00
2013-4-4,62,47,34,40,29,20,70,50,36,30.27,30.04,20,6,24,0.00
2013-4-5,60,47,32,36,31,26,83,56,34,30.20,29.83,22,6,24,0.00
2013-4-6,67,57,46,49,43,36,79,59,50,29.83,29.53,31,7,31,0.00
2013-4-7,67,49,34,46,40,31,94,72,46,29.95,29.66,18,4,18,0.00
2013-4-8,74,62,48,56,52,44,94,72,48,29.77,29.60,18,2,18,0.06
2013-4-9,63,51,42,58,49,40,96,94,81,29.89,29.68,27,9,27,0.84
2013-4-10,42,39,38,40,37,36,94,92,90,29.96,29.71,35,8,35,0.85
2013-4-11,40,38,36,39,35,32,95,91,82,29.75,29.60,18,3,18,0.21
2013-4-12,39,36,33,34,30,25,91,80,69,29.98,29.63,26,10,26,0.01
2013-4-13,53,41,29,37,30,23,82,66,49,30.03,29.84,21,5,24,0.00
2013-4-14,68,52,41,54,45,36,90,76,57,29.84,29.41,31,8,33,0.27
2013-4-15,51,42,36,43,33,26,84,72,56,30.08,29.64,25,4,27,0.04
2013-4-16,49,41,32,36,32,26,86,70,55,30.27,30.07,24,6,24,0.00
2013-4-17,46,42,39,45,39,35,95,87,68,30.22,29.56,33,8,35,2.07
2013-4-18,42,37,34,40,34,29,94,90,81,29.76,29.55,32,12,34,0.48
2013-4-19,42,35,30,29,26,23,83,69,50,30.10,29.71,38,15,39,0.00
2013-4-20,48,38,26,28,24,20,83,60,36,30.31,30.10,21,3,21,0.00
2013-4-21,67,53,41,47,38,27,74,57,35,30.27,30.06,32,8,32,0.05
2013-4-22,66,52,36,49,45,33,98,78,47,30.17,29.89,27,5,33,0.35
2013-4-23,41,35,32,33,28,24,89,77,58,30.17,30.05,28,14,29,0.01
2013-4-24,54,41,27,37,28,22,85,61,34,30.20,30.03,30,5,34,0.00
2013-4-25,61,48,33,37,32,26,84,57,33,30.29,30.13,24,4,26,0.00
2013-4-26,66,57,49,50,44,37,80,63,53,30.19,30.08,32,7,32,0.00
2013-4-27,69,56,45,50,46,42,92,72,48,30.22,29.98,18,2,18,0.00
2013-4-28,75,61,45,53,49,42,92,67,44,29.99,29.73,21,4,22,0.00
2013-4-29,81,68,55,62,56,50,85,67,47,29.76,29.50,25,3,27,0.00
2013-4-30,83,74,60,62,55,46,69,52,42,29.83,29.51,33,10,35,0.00
2013-5-1,60,49,39,48,40,34,83,72,60,30.33,29.83,38,17,44,0.00
2013-5-2,40,34,32,35,32,30,94,92,81,30.47,30.28,35,15,39,0.94
2013-5-3,34,33,32,32,31,30,100,92,88,30.39,29.98,28,13,28,0.17
2013-5-4,47,40,33,45,38,31,95,94,92,30.10,29.92,25,8,25,0.45
2013-5-5,60,49,43,54,46,40,94,90,81,30.13,30.05,18,5,18,0.00
2013-5-6,75,59,45,58,50,44,94,73,43,30.11,30.00,14,1,14,0.00
2013-5-7,79,66,49,54,49,45,91,59,34,30.06,29.94,10,0,0,0.00
2013-5-8,72,62,54,58,54,48,92,76,51,29.98,29.90,18,2,22,0.15
2013-5-9,71,60,54,60,56,50,95,86,65,29.93,29.82,24,5,25,1.06
2013-5-10,66,55,48,53,49,45,95,79,57,30.03,29.91,21,8,22,0.00
2013-5-11,55,51,44,48,34,23,81,55,30,30.20,29.95,34,10,35,0.00
2013-5-12,51,42,36,29,26,23,66,53,35,30.27,30.20,18,2,19,0.00
2013-5-13,75,64,44,51,44,29,59,47,38,30.14,29.82,22,4,24,0.00
2013-5-14,95,79,62,66,58,51,76,51,32,29.82,29.56,33,5,33,0.00
2013-5-15,83,74,61,55,46,39,59,39,24,29.88,29.69,23,4,24,0.00
2013-5-16,80,71,61,66,58,48,75,63,47,29.88,29.76,20,3,20,0.00
2013-5-17,81,72,64,64,62,60,88,71,52,29.91,29.80,19,4,21,0.00
2013-5-18,82,73,61,66,62,58,92,71,55,29.91,29.73,21,5,21,0.00
2013-5-19,88,73,60,68,63,58,94,72,42,29.77,29.49,46,7,46,1.56
2013-5-20,78,67,60,63,59,56,95,78,54,29.64,29.50,27,7,28,0.32
2013-5-21,70,63,58,59,53,47,90,70,52,29.66,29.54,22,5,26,0.00
2013-5-22,62,57,54,56,52,50,92,83,73,29.88,29.63,24,6,24,0.06
2013-5-23,54,53,52,51,50,49,92,90,88,30.05,29.88,22,10,22,0.00
2013-5-24,70,66,60,52,49,46,71,55,46,30.25,30.15,23,7,25,0.01
2013-5-25,60,54,51,52,50,46,92,86,60,30.25,30.11,31,9,32,0.64
2013-5-26,60,55,51,58,52,48,94,91,88,30.15,29.88,27,8,32,0.24
2013-5-27,76,65,57,64,60,56,96,84,63,30.00,29.65,43,3,45,0.76
2013-5-28,81,71,63,67,64,61,96,80,57,29.75,29.59,22,3,22,0.48
2013-5-29,81,70,65,71,64,58,94,82,70,29.77,29.63,32,5,35,0.70
2013-5-30,74,68,64,67,62,60,90,80,69,29.66,29.53,28,7,28,0.06
2013-5-31,76,69,62,65,62,56,94,79,63,29.69,29.61,27,5,27,0.00
2013-6-1,70,62,57,62,55,49,92,78,67,29.93,29.60,27,6,30,0.15
2013-6-2,67,58,52,50,47,44,82,68,48,30.08,29.92,30,7,30,0.00
2013-6-3,72,61,47,52,49,44,92,67,46,30.09,29.92,19,3,21,0.00
2013-6-4,66,61,56,61,56,51,92,82,69,30.06,29.95,25,6,29,0.14
2013-6-5,70,64,60,61,58,53,95,84,63,30.01,29.92,15,2,15,0.68
2013-6-6,69,61,52,57,53,50,93,76,58,29.98,29.90,23,5,25,0.00
2013-6-7,71,61,52,55,52,49,93,74,50,30.01,29.92,13,1,13,0.00
2013-6-8,74,63,52,60,55,49,93,77,54,29.93,29.76,21,3,23,0.20
2013-6-9,72,65,61,63,60,58,94,84,66,29.78,29.69,22,4,23,0.16
2013-6-10,80,67,58,65,61,57,98,82,58,29.90,29.75,12,1,12,0.01
2013-6-11,87,76,64,73,68,61,92,77,61,29.89,29.65,29,2,29,0.00
2013-6-12,91,77,65,76,69,57,92,76,56,29.85,29.60,34,7,34,0.13
2013-6-13,87,73,61,62,58,54,81,60,36,30.03,29.85,29,5,29,0.00
2013-6-14,74,68,64,65,60,57,94,76,60,30.04,29.83,31,4,32,1.34
2013-6-15,83,72,64,72,66,61,95,82,56,30.01,29.82,32,3,32,0.16
2013-6-16,89,76,66,69,61,50,93,64,30,29.95,29.89,13,1,13,0.00
2013-6-17,90,76,62,64,59,54,88,58,32,29.95,29.87,20,3,20,0.00
2013-6-18,86,74,61,62,58,54,86,59,39,29.99,29.92,13,1,15,0.00
2013-6-19,84,74,65,68,63,59,84,68,45,30.03,29.94,20,4,21,0.00
2013-6-20,88,79,68,69,66,61,79,65,51,30.00,29.86,29,7,30,0.00
2013-6-21,89,80,73,76,71,67,83,74,64,29.94,29.76,29,6,33,0.00
2013-6-22,92,83,71,75,71,63,78,68,56,29.97,29.78,22,4,24,0.01
2013-6-23,82,76,65,71,68,62,91,78,65,29.94,29.75,26,4,27,0.45
2013-6-24,78,72,67,72,67,63,94,87,73,29.95,29.78,29,4,29,1.04
2013-6-25,89,78,70,74,71,67,94,80,53,29.81,29.67,19,3,25,0.02
2013-6-26,92,83,74,78,71,65,89,70,43,29.76,29.62,25,2,26,0.02
2013-6-27,87,82,76,69,65,63,65,56,48,29.86,29.81,18,2,20,0.01
2013-6-28,86,78,70,64,59,54,77,54,35,29.86,29.74,36,9,37,0.00
2013-6-29,76,70,65,64,58,55,88,66,52,29.89,29.73,38,12,38,0.11
2013-6-30,79,69,60,57,53,46,85,59,35,30.06,29.89,24,8,25,0.00
2013-7-1,82,72,59,57,53,50,75,54,35,30.11,30.06,25,4,25,0.00
2013-7-2,86,71,57,64,57,50,88,63,36,30.11,29.99,26,1,27,0.11
2013-7-3,81,70,58,64,59,54,94,70,41,30.03,29.95,13,1,16,0.00
2013-7-4,86,74,61,64,60,58,91,64,42,30.01,29.91,16,2,20,0.00
2013-7-5,88,78,66,66,61,57,73,58,44,29.96,29.86,22,4,23,0.00
2013-7-6,92,80,69,69,64,60,74,60,42,29.92,29.81,21,6,23,0.00
2013-7-7,92,82,72,72,68,64,77,63,46,29.87,29.81,19,3,23,0.00
2013-7-8,90,82,77,75,72,67,85,71,58,29.92,29.85,13,1,13,0.04
2013-7-9,94,83,75,78,74,71,89,75,58,29.93,29.81,15,2,19,0.05
2013-7-10,85,77,69,73,61,54,83,59,36,30.02,29.85,24,5,25,0.00
2013-7-11,84,74,62,62,58,56,84,59,41,30.09,29.98,15,2,18,0.00
2013-7-12,86,76,66,64,61,57,77,61,45,30.05,29.95,23,6,23,0.00
2013-7-13,79,72,66,66,61,55,76,67,60,30.04,29.96,20,5,20,0.00
2013-7-14,86,77,65,66,63,60,85,64,48,30.14,30.04,18,4,21,0.00
2013-7-15,90,79,68,72,68,62,83,70,55,30.19,30.09,23,4,24,0.00
2013-7-16,94,84,74,73,71,70,87,67,48,30.21,30.15,15,2,15,0.00
2013-7-17,96,86,75,74,71,69,83,64,43,30.25,30.12,13,1,13,0.00
2013-7-18,94,85,76,72,70,67,83,62,44,30.14,29.88,22,4,23,0.00
2013-7-19,96,85,76,73,68,62,74,58,37,29.88,29.77,20,3,20,0.07
2013-7-20,92,79,63,65,61,56,88,57,32,29.93,29.81,12,0,12,0.00
2013-7-21,78,73,66,70,65,-100,87,77,63,29.88,29.76,19,2,19,0.17
2013-7-22,94,78,66,74,68,61,94,74,47,29.84,29.67,33,4,35,0.30
2013-7-23,78,70,64,66,60,56,90,71,53,29.97,29.76,21,4,22,0.00
2013-7-24,81,71,59,60,58,54,88,66,47,30.05,29.96,14,1,15,0.00
2013-7-25,86,75,62,67,63,58,86,68,47,30.03,29.91,21,3,26,0.00
2013-7-26,78,71,63,67,59,52,92,68,43,30.02,29.91,32,7,32,0.02
2013-7-27,70,62,54,53,48,45,85,63,41,30.08,29.98,24,7,24,0.00
2013-7-28,77,64,52,54,50,47,82,60,39,30.05,29.97,20,2,20,0.00
2013-7-29,74,66,55,61,56,50,87,71,53,30.11,30.03,18,3,20,0.00
2013-7-30,70,66,63,66,63,58,95,91,77,30.08,30.02,13,3,14,0.24
2013-7-31,86,75,63,68,65,62,96,72,49,30.11,29.99,14,1,15,0.00
2013-8-1,91,75,61,66,62,56,94,67,33,30.05,29.87,12,1,12,0.00
2013-8-2,82,73,66,67,63,56,89,73,53,29.99,29.85,26,3,27,0.00
2013-8-3,79,71,61,60,57,52,84,62,41,30.16,29.99,18,2,18,0.00
2013-8-4,82,72,57,60,57,53,89,62,42,30.17,30.02,18,2,22,0.00
2013-8-5,85,74,66,72,66,59,90,77,58,30.02,29.75,19,2,19,0.00
2013-8-6,91,78,68,72,68,65,93,75,50,29.86,29.72,20,2,22,0.07
2013-8-7,80,74,68,68,65,61,94,76,57,29.98,29.76,21,4,21,0.36
2013-8-8,84,72,60,63,60,55,84,67,46,30.00,29.93,9,0,0,0.00
2013-8-9,81,73,66,67,61,54,87,67,43,30.10,29.97,21,3,21,0.00
2013-8-10,85,72,58,63,59,54,91,65,43,30.18,30.05,11,0,0,0.00
2013-8-11,86,76,65,68,63,58,78,64,49,30.09,29.94,23,2,24,0.00
2013-8-12,83,73,66,67,62,56,94,72,44,30.03,29.94,23,4,24,0.07
2013-8-13,77,68,58,60,56,52,90,68,47,30.16,30.02,15,1,15,0.00
2013-8-14,78,67,55,55,51,48,81,59,37,30.21,30.10,13,0,13,0.00
2013-8-15,72,66,61,58,54,51,78,66,52,30.14,30.08,20,2,20,0.01
2013-8-16,80,67,55,57,54,51,87,64,42,30.19,30.11,13,1,14,0.00
2013-8-17,82,70,55,58,55,51,89,62,36,30.21,30.09,16,1,16,0.00
2013-8-18,84,71,58,61,58,54,87,64,42,30.15,30.04,15,1,16,0.00
2013-8-19,86,74,62,66,62,58,88,69,48,30.07,29.94,19,2,19,0.00
2013-8-20,90,80,72,70,66,62,76,63,48,29.97,29.88,26,4,26,0.00
2013-8-21,94,82,72,71,68,66,81,64,46,29.96,29.90,20,3,20,0.00
2013-8-22,85,78,72,70,68,66,85,72,57,30.05,29.93,14,1,14,0.00
2013-8-23,88,77,66,73,69,64,94,78,60,30.08,29.99,18,3,18,0.00
2013-8-24,91,81,71,73,70,67,88,70,50,30.10,29.99,27,4,27,0.00
2013-8-25,96,84,74,72,69,65,76,61,43,30.12,30.00,21,4,23,0.00
2013-8-26,98,85,74,74,70,68,84,63,42,30.06,29.90,22,3,22,0.00
2013-8-27,98,86,78,73,70,68,74,60,44,29.92,29.80,25,6,25,0.00
2013-8-28,100,86,74,70,68,65,74,56,37,29.94,29.86,15,1,15,0.00
2013-8-29,96,85,72,74,70,66,83,64,45,29.98,29.85,18,2,18,0.00
2013-8-30,104,87,74,78,72,67,86,64,32,29.86,29.71,19,3,20,0.00
2013-8-31,94,81,69,72,68,62,90,68,35,29.80,29.72,14,1,14,0.00
2013-9-1,82,75,64,70,63,57,91,68,45,29.93,29.67,26,8,27,0.09
2013-9-2,78,67,56,58,54,49,92,68,40,30.03,29.93,18,4,20,0.00
2013-9-3,84,68,51,59,55,49,92,67,39,30.11,30.00,9,0,0,0.00
2013-9-4,92,76,60,64,60,55,85,60,35,30.12,30.02,12,1,14,0.00
2013-9-5,92,80,70,68,65,63,83,63,43,30.15,30.06,10,0,0,0.00
2013-9-6,92,80,66,66,63,60,88,60,36,30.08,29.89,21,3,21,0.00
2013-9-7,94,82,74,73,68,62,81,63,45,29.91,29.79,16,3,16,0.00
2013-9-8,88,79,71,74,71,68,91,78,62,29.89,29.77,15,4,16,0.00
2013-9-9,100,85,72,71,67,63,92,58,32,29.81,29.73,31,4,31,0.00
2013-9-10,97,85,74,69,65,61,69,53,37,29.94,29.81,26,4,27,0.00
2013-9-11,86,78,70,71,66,60,85,68,52,30.03,29.93,18,1,18,0.00
2013-9-12,78,70,62,63,53,46,85,57,33,30.15,30.02,25,6,26,0.00
2013-9-13,74,63,52,49,47,44,80,58,39,30.23,30.08,14,2,14,0.00
2013-9-14,76,64,49,47,44,42,75,51,32,30.11,29.88,19,2,19,0.00
2013-9-15,69,65,60,63,55,47,86,71,45,30.22,29.83,25,6,25,0.09
2013-9-16,64,58,54,54,52,50,91,80,64,30.35,30.22,14,3,14,0.00
2013-9-17,65,58,54,63,56,50,95,91,81,30.25,29.98,18,4,19,0.64
2013-9-18,89,76,65,72,68,62,93,76,54,29.98,29.71,24,7,24,0.00
2013-9-19,86,74,64,70,67,60,96,80,57,29.84,29.63,57,4,63,1.21
2013-9-20,68,61,53,64,52,45,96,72,56,29.98,29.84,26,8,26,0.01
2013-9-21,74,59,44,51,46,41,92,65,36,30.03,29.89,11,0,0,0.00
2013-9-22,77,61,50,56,50,45,85,69,46,29.97,29.85,16,1,18,0.00
2013-9-23,76,64,52,55,51,48,86,65,43,29.94,29.81,27,6,27,0.00
2013-9-24,75,64,54,59,54,49,83,71,57,29.88,29.82,18,4,18,0.00
2013-9-25,78,66,53,61,56,49,87,71,53,29.93,29.81,15,1,15,0.00
2013-9-26,83,70,58,65,60,54,91,72,50,29.92,29.83,21,5,28,0.00
2013-9-27,85,74,66,65,62,60,86,67,43,29.94,29.83,25,6,29,0.00
2013-9-28,70,62,50,65,57,47,91,82,67,30.03,29.74,26,6,27,0.18
2013-9-29,74,60,45,51,47,43,94,66,38,30.07,29.91,21,2,21,0.01
2013-9-30,76,64,52,58,52,47,85,66,43,29.92,29.72,24,4,25,0.00
2013-10-1,82,70,59,59,55,46,87,63,43,29.95,29.77,15,2,15,0.00
2013-10-2,84,72,60,66,56,46,82,59,44,30.00,29.83,19,3,20,0.00
2013-10-3,78,71,66,68,64,61,94,80,61,29.83,29.73,16,2,16,0.23
2013-10-4,77,69,62,71,65,60,94,88,67,29.86,29.71,32,5,34,1.20
2013-10-5,74,55,47,63,42,35,77,62,48,29.91,29.77,22,4,23,0.00
2013-10-6,50,46,42,47,41,34,93,82,62,29.92,29.74,22,3,23,0.15
2013-10-7,74,57,42,48,44,39,88,64,34,30.05,29.92,16,3,18,0.00
2013-10-8,76,63,51,50,47,44,77,58,36,30.06,29.95,28,4,29,0.00
2013-10-9,75,63,52,53,49,46,85,63,39,30.09,30.00,16,3,19,0.00
2013-10-10,77,63,49,56,50,44,86,64,40,30.05,29.87,22,3,22,0.00
2013-10-11,72,65,57,63,58,51,88,77,69,29.89,29.70,25,7,25,0.00
2013-10-12,68,57,46,61,41,36,80,56,32,30.25,29.81,22,5,23,0.00
2013-10-13,68,52,36,39,36,31,86,58,32,30.45,30.25,8,0,0,0.00
2013-10-14,64,54,43,48,39,33,71,57,42,30.36,29.81,32,8,32,0.02
2013-10-15,60,51,46,57,45,40,92,80,63,29.95,29.75,27,8,30,0.34
2013-10-16,50,46,40,43,41,37,92,82,71,30.02,29.94,20,5,22,0.00
2013-10-17,63,49,37,43,39,34,92,70,37,29.97,29.83,25,3,27,0.00
2013-10-18,50,44,37,39,34,29,89,69,45,30.07,29.96,24,5,27,0.00
2013-10-19,58,46,35,37,33,30,84,62,41,29.98,29.80,21,5,24,0.00
2013-10-20,62,49,40,45,38,32,77,66,47,29.95,29.72,24,4,24,0.00
2013-10-21,50,42,35,36,30,23,81,63,42,30.08,29.95,22,5,22,0.00
2013-10-22,43,39,36,38,34,27,92,82,67,30.10,29.88,19,5,20,0.07
2013-10-23,43,37,30,35,30,26,90,78,57,30.18,30.08,19,4,19,0.02
2013-10-24,45,37,31,31,28,25,86,70,54,30.40,30.18,18,6,21,0.00
2013-10-25,56,42,27,33,29,24,92,62,41,30.43,30.05,21,3,26,0.00
2013-10-26,52,45,34,34,30,27,75,56,40,30.16,29.96,26,6,30,0.00
2013-10-27,63,45,27,37,31,24,89,62,37,30.14,29.86,20,2,22,0.00
2013-10-28,55,44,36,40,35,31,82,70,54,30.30,30.00,21,6,21,0.00
2013-10-29,56,47,39,48,40,34,86,79,71,30.29,30.01,20,7,21,0.00
2013-10-30,61,56,51,59,54,48,96,93,85,30.02,29.64,16,4,22,0.76
2013-10-31,54,45,41,52,42,38,94,87,76,29.66,29.46,19,5,20,0.01
2013-11-1,56,47,40,41,39,36,86,73,53,29.89,29.53,25,6,25,0.00
2013-11-2,54,46,38,40,36,32,85,71,45,30.14,29.88,21,6,21,0.00
2013-11-3,56,46,34,37,34,30,85,64,43,30.16,29.92,33,8,37,0.00
2013-11-4,55,50,45,47,42,37,92,77,63,30.16,29.90,24,5,24,0.07
2013-11-5,57,49,41,56,45,39,95,88,76,30.18,29.78,22,4,22,0.51
2013-11-6,45,38,31,39,31,26,92,76,49,30.29,29.85,30,8,32,0.00
2013-11-7,45,36,29,35,28,24,90,76,50,30.36,30.26,20,3,21,0.00
2013-11-8,60,45,30,38,31,23,77,60,42,30.32,29.80,36,5,36,0.00
2013-11-9,56,49,39,40,35,29,68,60,48,30.31,29.85,26,7,26,0.00
2013-11-10,49,40,27,32,28,22,84,63,47,30.45,30.17,18,2,18,0.00
2013-11-11,49,33,17,38,25,10,85,72,53,30.75,30.10,28,10,28,0.00
2013-11-12,31,20,11,15,11,6,81,67,44,30.92,30.64,16,6,16,0.00
2013-11-13,50,35,21,26,18,10,64,49,38,30.64,30.06,25,8,26,0.00
2013-11-14,53,44,37,31,26,20,61,50,41,30.07,29.89,22,4,23,0.00
2013-11-15,56,44,32,38,33,27,81,65,47,29.93,29.72,15,3,15,0.00
2013-11-16,67,56,44,57,49,38,88,77,57,29.72,29.30,28,5,28,0.01
2013-11-17,52,47,40,49,42,35,92,81,68,29.97,29.25,25,7,26,0.22
2013-11-18,46,38,32,35,31,28,86,75,59,30.29,29.97,22,6,22,0.00
2013-11-19,54,42,31,34,30,27,88,66,44,30.29,30.02,27,8,28,0.00
2013-11-20,46,41,38,37,32,27,85,73,50,30.02,29.89,28,10,28,0.04
2013-11-22,25,19,16,17,12,10,81,75,67,30.67,30.62,12,2,12,0.00
2013-11-23,18,12,4,11,5,0,81,72,61,30.92,30.66,25,8,25,0.00
2013-11-24,24,11,3,12,4,0,92,76,51,30.85,30.32,20,3,20,0.00
2013-11-25,37,30,22,28,22,12,86,72,56,30.33,30.13,23,5,25,0.00
2013-11-26,29,24,16,24,15,8,86,69,50,30.42,30.17,33,9,33,0.00
2013-11-27,26,19,9,14,9,4,80,66,51,30.47,30.13,19,5,19,0.00
2013-11-28,31,25,19,19,16,12,74,68,58,30.57,30.10,22,5,23,0.00
2013-11-29,39,26,12,26,18,8,86,72,56,30.58,30.26,21,4,22,0.00
2013-11-30,52,39,31,35,29,25,81,69,51,30.26,30.07,11,1,0,0.00
2013-12-1,40,34,25,31,27,22,92,79,66,30.19,29.93,9,0,0,0.00
2013-12-2,48,38,32,39,33,28,89,82,70,29.93,29.56,23,2,23,0.00
2013-12-3,40,38,35,38,36,33,95,93,87,29.68,29.55,8,1,0,0.00
2013-12-4,38,30,17,37,28,12,96,91,78,29.98,29.53,27,6,29,0.02
2013-12-5,17,12,6,12,4,-1,79,70,64,30.49,29.95,30,12,33,0.00
2013-12-6,12,6,0,2,-2,-6,75,67,60,30.78,30.47,18,8,21,0.00
2013-12-7,12,5,-3,1,-4,-8,84,67,54,30.87,30.61,14,4,14,0.00
2013-12-8,18,14,10,15,10,1,95,81,65,30.61,30.07,19,5,19,0.00
2013-12-9,15,4,-1,12,-1,-5,88,76,61,30.38,30.14,25,6,25,0.00
2013-12-10,21,17,4,13,8,-4,76,66,57,30.31,30.08,31,7,31,0.00
2013-12-11,20,6,0,17,0,-6,87,73,62,30.71,30.27,26,6,29,0.00
2013-12-12,30,18,4,17,9,-4,82,68,56,30.58,30.18,14,3,14,0.00
2013-12-13,30,22,16,24,18,12,87,82,74,30.18,30.00,20,4,20,0.00
2013-12-14,23,19,11,19,14,6,90,83,76,30.22,30.10,22,9,22,0.00
2013-12-15,17,13,10,9,7,4,83,77,70,30.22,30.10,15,3,16,0.00
2013-12-16,28,19,10,23,15,6,89,85,80,30.18,30.04,12,3,12,0.00
2013-12-17,36,29,22,27,20,14,92,71,47,30.25,30.13,32,5,35,0.00
2013-12-18,48,35,20,33,25,13,84,67,53,30.21,29.77,27,3,27,0.00
2013-12-19,36,32,27,30,28,25,92,85,77,29.90,29.77,22,7,22,0.00
2013-12-20,27,23,20,25,21,17,92,90,89,29.96,29.84,19,6,19,0.00
2013-12-21,24,22,19,22,18,15,92,88,85,29.96,29.80,20,4,21,0.00
2013-12-22,24,17,5,22,14,1,92,88,82,30.40,29.81,25,10,25,0.00
2013-12-23,6,1,-6,1,-5,-13,82,73,62,30.67,30.40,21,7,25,0.00
2013-12-24,16,2,-12,13,-4,-16,88,71,57,30.66,30.29,23,5,23,0.00
2013-12-25,33,24,16,28,19,13,95,83,72,30.31,30.20,19,5,25,0.00
2013-12-26,38,29,18,26,22,13,83,75,62,30.28,30.13,11,1,12,0.00
2013-12-27,49,35,19,30,25,16,89,69,47,30.29,30.10,18,3,21,0.00
2013-12-28,52,41,24,32,29,19,84,64,45,30.11,29.79,34,5,34,0.00
2013-12-29,24,8,0,19,-1,-11,84,66,45,30.41,29.98,26,11,33,0.00
2013-12-30,15,6,-2,12,0,-12,86,74,54,30.41,30.21,11,3,13,0.00
2013-12-31,11,8,3,6,3,0,86,81,77,30.39,30.25,18,5,19,0.00
2014-1-1,9,6,4,4,2,0,93,81,79,30.46,30.28,20,9,22,0.00
2014-1-2,6,1,-7,0,-4,-10,80,78,74,30.58,30.42,18,7,19,0.00